sensor_id;sensor_type;location;lat;lon;timestamp;P1;durP1;ratioP1;P2;durP2;ratioP2
78122;SDS011;67376;44.802;10.332;2024-03-02T00:00:03;4.25;;;3.20;;
78122;SDS011;67376;44.802;10.332;2024-03-02T00:02:39;6.90;;;3.53;;
78122;SDS011;67376;44.802;10.332;2024-03-02T00:05:06;4.03;;;2.70;;
78122;SDS011;67376;44.802;10.332;2024-03-02T00:07:32;6.40;;;3.50;;
78122;SDS011;67376;44.802;10.332;2024-03-02T00:09:57;5.25;;;3.28;;
78122;SDS011;67376;44.802;10.332;2024-03-02T00:12:23;4.70;;;3.00;;
78122;SDS011;67376;44.802;10.332;2024-03-02T00:14:48;6.78;;;3.58;;
78122;SDS011;67376;44.802;10.332;2024-03-02T00:17:17;5.07;;;3.05;;
78122;SDS011;67376;44.802;10.332;2024-03-02T00:19:49;4.05;;;2.85;;
78122;SDS011;67376;44.802;10.332;2024-03-02T00:22:15;4.93;;;2.92;;
78122;SDS011;67376;44.802;10.332;2024-03-02T00:24:40;6.20;;;3.10;;
78122;SDS011;67376;44.802;10.332;2024-03-02T00:27:05;5.75;;;3.33;;
78122;SDS011;67376;44.802;10.332;2024-03-02T00:29:32;5.38;;;3.03;;
78122;SDS011;67376;44.802;10.332;2024-03-02T00:31:59;6.45;;;3.25;;
78122;SDS011;67376;44.802;10.332;2024-03-02T00:34:26;5.40;;;2.90;;
78122;SDS011;67376;44.802;10.332;2024-03-02T00:36:51;6.78;;;3.63;;
78122;SDS011;67376;44.802;10.332;2024-03-02T00:39:16;3.95;;;3.10;;
78122;SDS011;67376;44.802;10.332;2024-03-02T00:41:42;4.40;;;3.30;;
78122;SDS011;67376;44.802;10.332;2024-03-02T00:44:15;7.10;;;3.13;;
78122;SDS011;67376;44.802;10.332;2024-03-02T00:46:41;5.75;;;3.78;;
78122;SDS011;67376;44.802;10.332;2024-03-02T00:51:35;4.47;;;3.10;;
78122;SDS011;67376;44.802;10.332;2024-03-02T00:54:03;4.95;;;3.03;;
78122;SDS011;67376;44.802;10.332;2024-03-02T00:56:31;4.72;;;3.05;;
78122;SDS011;67376;44.802;10.332;2024-03-02T00:58:57;5.88;;;3.17;;
78122;SDS011;67376;44.802;10.332;2024-03-02T01:01:22;4.10;;;2.70;;
78122;SDS011;67376;44.802;10.332;2024-03-02T01:03:48;5.40;;;3.10;;
78122;SDS011;67376;44.802;10.332;2024-03-02T01:06:14;5.90;;;3.45;;
78122;SDS011;67376;44.802;10.332;2024-03-02T01:08:40;4.45;;;3.25;;
78122;SDS011;67376;44.802;10.332;2024-03-02T01:11:06;6.88;;;3.28;;
78122;SDS011;67376;44.802;10.332;2024-03-02T01:13:32;4.60;;;2.83;;
78122;SDS011;67376;44.802;10.332;2024-03-02T01:15:57;5.97;;;3.08;;
78122;SDS011;67376;44.802;10.332;2024-03-02T01:18:23;4.43;;;2.90;;
78122;SDS011;67376;44.802;10.332;2024-03-02T01:20:49;4.25;;;2.75;;
78122;SDS011;67376;44.802;10.332;2024-03-02T01:23:20;6.22;;;3.03;;
78122;SDS011;67376;44.802;10.332;2024-03-02T01:25:46;4.03;;;3.05;;
78122;SDS011;67376;44.802;10.332;2024-03-02T01:28:12;4.43;;;3.03;;
78122;SDS011;67376;44.802;10.332;2024-03-02T01:30:38;4.85;;;2.60;;
78122;SDS011;67376;44.802;10.332;2024-03-02T01:33:03;4.93;;;2.85;;
78122;SDS011;67376;44.802;10.332;2024-03-02T01:35:30;5.28;;;3.20;;
78122;SDS011;67376;44.802;10.332;2024-03-02T01:37:56;6.28;;;3.13;;
78122;SDS011;67376;44.802;10.332;2024-03-02T01:40:21;5.45;;;3.20;;
78122;SDS011;67376;44.802;10.332;2024-03-02T01:42:51;5.50;;;3.17;;
78122;SDS011;67376;44.802;10.332;2024-03-02T01:45:16;4.07;;;2.95;;
78122;SDS011;67376;44.802;10.332;2024-03-02T01:47:42;4.63;;;3.20;;
78122;SDS011;67376;44.802;10.332;2024-03-02T01:50:07;4.22;;;2.67;;
78122;SDS011;67376;44.802;10.332;2024-03-02T01:52:34;4.70;;;2.63;;
78122;SDS011;67376;44.802;10.332;2024-03-02T01:54:59;5.55;;;2.92;;
78122;SDS011;67376;44.802;10.332;2024-03-02T01:57:24;5.28;;;2.88;;
78122;SDS011;67376;44.802;10.332;2024-03-02T01:59:50;6.25;;;3.83;;
78122;SDS011;67376;44.802;10.332;2024-03-02T02:02:16;5.22;;;2.95;;
78122;SDS011;67376;44.802;10.332;2024-03-02T02:04:41;5.43;;;3.03;;
78122;SDS011;67376;44.802;10.332;2024-03-02T02:07:07;6.00;;;3.50;;
78122;SDS011;67376;44.802;10.332;2024-03-02T02:09:32;4.82;;;3.10;;
78122;SDS011;67376;44.802;10.332;2024-03-02T02:11:57;5.15;;;3.22;;
78122;SDS011;67376;44.802;10.332;2024-03-02T02:14:24;6.82;;;3.35;;
78122;SDS011;67376;44.802;10.332;2024-03-02T02:16:49;4.38;;;2.90;;
78122;SDS011;67376;44.802;10.332;2024-03-02T02:19:15;3.95;;;2.80;;
78122;SDS011;67376;44.802;10.332;2024-03-02T02:21:43;3.33;;;2.50;;
78122;SDS011;67376;44.802;10.332;2024-03-02T02:24:09;4.78;;;2.83;;
78122;SDS011;67376;44.802;10.332;2024-03-02T02:26:34;5.63;;;2.60;;
78122;SDS011;67376;44.802;10.332;2024-03-02T02:29:00;4.88;;;3.03;;
78122;SDS011;67376;44.802;10.332;2024-03-02T02:31:25;5.25;;;2.80;;
78122;SDS011;67376;44.802;10.332;2024-03-02T02:33:51;6.85;;;3.38;;
78122;SDS011;67376;44.802;10.332;2024-03-02T02:36:16;4.43;;;2.83;;
78122;SDS011;67376;44.802;10.332;2024-03-02T02:38:42;4.88;;;2.97;;
78122;SDS011;67376;44.802;10.332;2024-03-02T02:41:10;6.60;;;2.85;;
78122;SDS011;67376;44.802;10.332;2024-03-02T02:43:36;4.07;;;2.72;;
78122;SDS011;67376;44.802;10.332;2024-03-02T02:46:01;3.80;;;2.67;;
78122;SDS011;67376;44.802;10.332;2024-03-02T02:48:27;4.13;;;2.72;;
78122;SDS011;67376;44.802;10.332;2024-03-02T02:50:52;5.72;;;2.90;;
78122;SDS011;67376;44.802;10.332;2024-03-02T02:53:17;4.53;;;2.88;;
78122;SDS011;67376;44.802;10.332;2024-03-02T02:55:43;4.53;;;3.10;;
78122;SDS011;67376;44.802;10.332;2024-03-02T02:58:11;6.68;;;2.95;;
78122;SDS011;67376;44.802;10.332;2024-03-02T03:03:02;4.78;;;2.80;;
78122;SDS011;67376;44.802;10.332;2024-03-02T03:05:28;5.32;;;2.90;;
78122;SDS011;67376;44.802;10.332;2024-03-02T03:07:53;7.20;;;3.17;;
78122;SDS011;67376;44.802;10.332;2024-03-02T03:10:19;5.63;;;3.35;;
78122;SDS011;67376;44.802;10.332;2024-03-02T03:12:47;4.93;;;3.03;;
78122;SDS011;67376;44.802;10.332;2024-03-02T03:15:13;6.57;;;2.88;;
78122;SDS011;67376;44.802;10.332;2024-03-02T03:17:39;4.82;;;2.72;;
78122;SDS011;67376;44.802;10.332;2024-03-02T03:20:05;3.95;;;3.00;;
78122;SDS011;67376;44.802;10.332;2024-03-02T03:22:35;4.82;;;3.22;;
78122;SDS011;67376;44.802;10.332;2024-03-02T03:25:01;5.30;;;2.63;;
78122;SDS011;67376;44.802;10.332;2024-03-02T03:27:26;3.85;;;2.67;;
78122;SDS011;67376;44.802;10.332;2024-03-02T03:29:52;5.47;;;2.90;;
78122;SDS011;67376;44.802;10.332;2024-03-02T03:32:17;4.72;;;3.15;;
78122;SDS011;67376;44.802;10.332;2024-03-02T03:34:42;5.20;;;2.65;;
78122;SDS011;67376;44.802;10.332;2024-03-02T03:37:08;5.57;;;3.22;;
78122;SDS011;67376;44.802;10.332;2024-03-02T03:39:34;4.45;;;3.05;;
78122;SDS011;67376;44.802;10.332;2024-03-02T03:42:03;4.68;;;3.05;;
78122;SDS011;67376;44.802;10.332;2024-03-02T03:44:28;4.30;;;2.83;;
78122;SDS011;67376;44.802;10.332;2024-03-02T03:46:54;5.50;;;2.70;;
78122;SDS011;67376;44.802;10.332;2024-03-02T03:49:19;6.30;;;2.78;;
78122;SDS011;67376;44.802;10.332;2024-03-02T03:51:44;4.82;;;3.10;;
78122;SDS011;67376;44.802;10.332;2024-03-02T03:54:10;6.25;;;2.95;;
78122;SDS011;67376;44.802;10.332;2024-03-02T03:56:36;5.05;;;2.90;;
78122;SDS011;67376;44.802;10.332;2024-03-02T03:59:02;4.65;;;2.92;;
78122;SDS011;67376;44.802;10.332;2024-03-02T04:01:27;4.05;;;2.85;;
78122;SDS011;67376;44.802;10.332;2024-03-02T04:03:53;5.43;;;2.80;;
78122;SDS011;67376;44.802;10.332;2024-03-02T04:06:18;3.97;;;2.83;;
78122;SDS011;67376;44.802;10.332;2024-03-02T04:08:44;5.68;;;2.63;;
78122;SDS011;67376;44.802;10.332;2024-03-02T04:11:09;6.30;;;2.90;;
78122;SDS011;67376;44.802;10.332;2024-03-02T04:13:35;3.17;;;2.50;;
78122;SDS011;67376;44.802;10.332;2024-03-02T04:16:00;5.55;;;3.10;;
78122;SDS011;67376;44.802;10.332;2024-03-02T04:18:26;4.88;;;2.72;;
78122;SDS011;67376;44.802;10.332;2024-03-02T04:20:51;5.03;;;2.90;;
78122;SDS011;67376;44.802;10.332;2024-03-02T04:23:16;4.47;;;2.58;;
78122;SDS011;67376;44.802;10.332;2024-03-02T04:25:42;4.30;;;2.55;;
78122;SDS011;67376;44.802;10.332;2024-03-02T04:28:07;6.13;;;2.88;;
78122;SDS011;67376;44.802;10.332;2024-03-02T04:30:33;4.70;;;2.60;;
78122;SDS011;67376;44.802;10.332;2024-03-02T04:32:58;6.13;;;2.75;;
78122;SDS011;67376;44.802;10.332;2024-03-02T04:35:24;6.13;;;2.75;;
78122;SDS011;67376;44.802;10.332;2024-03-02T04:37:50;7.40;;;3.10;;
78122;SDS011;67376;44.802;10.332;2024-03-02T04:40:16;3.75;;;2.65;;
78122;SDS011;67376;44.802;10.332;2024-03-02T04:42:41;7.00;;;2.92;;
78122;SDS011;67376;44.802;10.332;2024-03-02T04:45:07;3.55;;;2.10;;
78122;SDS011;67376;44.802;10.332;2024-03-02T04:47:32;4.15;;;2.58;;
78122;SDS011;67376;44.802;10.332;2024-03-02T04:49:58;4.25;;;2.75;;
78122;SDS011;67376;44.802;10.332;2024-03-02T04:52:23;4.55;;;2.80;;
78122;SDS011;67376;44.802;10.332;2024-03-02T04:54:48;5.63;;;3.45;;
78122;SDS011;67376;44.802;10.332;2024-03-02T04:57:35;5.78;;;2.95;;
78122;SDS011;67376;44.802;10.332;2024-03-02T05:00:00;4.47;;;2.95;;
78122;SDS011;67376;44.802;10.332;2024-03-02T05:02:26;5.00;;;2.92;;
78122;SDS011;67376;44.802;10.332;2024-03-02T05:04:51;4.53;;;2.40;;
78122;SDS011;67376;44.802;10.332;2024-03-02T05:07:16;4.55;;;2.70;;
78122;SDS011;67376;44.802;10.332;2024-03-02T05:09:42;4.35;;;2.47;;
78122;SDS011;67376;44.802;10.332;2024-03-02T05:12:07;4.50;;;2.72;;
78122;SDS011;67376;44.802;10.332;2024-03-02T05:14:36;8.38;;;2.75;;
78122;SDS011;67376;44.802;10.332;2024-03-02T05:17:03;5.22;;;2.55;;
78122;SDS011;67376;44.802;10.332;2024-03-02T05:19:28;4.13;;;2.55;;
78122;SDS011;67376;44.802;10.332;2024-03-02T05:21:53;6.45;;;3.05;;
78122;SDS011;67376;44.802;10.332;2024-03-02T05:24:19;5.68;;;2.88;;
78122;SDS011;67376;44.802;10.332;2024-03-02T05:26:44;5.13;;;2.75;;
78122;SDS011;67376;44.802;10.332;2024-03-02T05:29:10;3.97;;;2.60;;
78122;SDS011;67376;44.802;10.332;2024-03-02T05:31:35;4.07;;;2.50;;
78122;SDS011;67376;44.802;10.332;2024-03-02T05:34:01;6.63;;;2.85;;
78122;SDS011;67376;44.802;10.332;2024-03-02T05:36:26;5.97;;;2.70;;
78122;SDS011;67376;44.802;10.332;2024-03-02T05:38:51;4.32;;;2.50;;
78122;SDS011;67376;44.802;10.332;2024-03-02T05:41:17;8.85;;;3.00;;
78122;SDS011;67376;44.802;10.332;2024-03-02T05:43:42;3.35;;;2.60;;
78122;SDS011;67376;44.802;10.332;2024-03-02T05:46:08;4.93;;;2.33;;
78122;SDS011;67376;44.802;10.332;2024-03-02T05:48:33;5.63;;;2.42;;
78122;SDS011;67376;44.802;10.332;2024-03-02T05:50:58;3.80;;;2.75;;
78122;SDS011;67376;44.802;10.332;2024-03-02T05:53:24;4.68;;;2.33;;
78122;SDS011;67376;44.802;10.332;2024-03-02T05:55:49;7.65;;;3.35;;
78122;SDS011;67376;44.802;10.332;2024-03-02T05:58:20;5.60;;;2.30;;
78122;SDS011;67376;44.802;10.332;2024-03-02T06:01:03;3.95;;;2.50;;
78122;SDS011;67376;44.802;10.332;2024-03-02T06:03:30;5.07;;;2.38;;
78122;SDS011;67376;44.802;10.332;2024-03-02T06:05:56;3.40;;;2.42;;
78122;SDS011;67376;44.802;10.332;2024-03-02T06:08:21;4.10;;;2.30;;
78122;SDS011;67376;44.802;10.332;2024-03-02T06:10:46;3.97;;;2.58;;
78122;SDS011;67376;44.802;10.332;2024-03-02T06:13:12;5.25;;;2.63;;
78122;SDS011;67376;44.802;10.332;2024-03-02T06:15:37;3.90;;;2.60;;
78122;SDS011;67376;44.802;10.332;2024-03-02T06:18:03;4.57;;;2.70;;
78122;SDS011;67376;44.802;10.332;2024-03-02T06:20:28;6.07;;;2.80;;
78122;SDS011;67376;44.802;10.332;2024-03-02T06:22:56;5.25;;;2.83;;
78122;SDS011;67376;44.802;10.332;2024-03-02T06:25:21;3.38;;;2.47;;
78122;SDS011;67376;44.802;10.332;2024-03-02T06:27:47;6.35;;;2.78;;
78122;SDS011;67376;44.802;10.332;2024-03-02T06:30:13;5.15;;;2.70;;
78122;SDS011;67376;44.802;10.332;2024-03-02T06:32:38;4.03;;;2.65;;
78122;SDS011;67376;44.802;10.332;2024-03-02T06:35:04;5.40;;;2.42;;
78122;SDS011;67376;44.802;10.332;2024-03-02T06:37:32;3.60;;;2.17;;
78122;SDS011;67376;44.802;10.332;2024-03-02T06:39:58;5.45;;;2.55;;
78122;SDS011;67376;44.802;10.332;2024-03-02T06:42:23;3.50;;;2.38;;
78122;SDS011;67376;44.802;10.332;2024-03-02T06:44:49;4.28;;;2.30;;
78122;SDS011;67376;44.802;10.332;2024-03-02T06:47:15;3.40;;;2.30;;
78122;SDS011;67376;44.802;10.332;2024-03-02T06:49:41;4.80;;;2.33;;
78122;SDS011;67376;44.802;10.332;2024-03-02T06:52:07;7.20;;;2.30;;
78122;SDS011;67376;44.802;10.332;2024-03-02T06:54:32;6.53;;;2.40;;
78122;SDS011;67376;44.802;10.332;2024-03-02T06:56:59;4.03;;;2.58;;
78122;SDS011;67376;44.802;10.332;2024-03-02T06:59:25;3.78;;;2.10;;
78122;SDS011;67376;44.802;10.332;2024-03-02T07:01:50;3.80;;;2.38;;
78122;SDS011;67376;44.802;10.332;2024-03-02T07:04:15;3.53;;;2.22;;
78122;SDS011;67376;44.802;10.332;2024-03-02T07:06:41;5.15;;;2.40;;
78122;SDS011;67376;44.802;10.332;2024-03-02T07:09:06;3.90;;;2.25;;
78122;SDS011;67376;44.802;10.332;2024-03-02T07:11:35;3.92;;;2.75;;
78122;SDS011;67376;44.802;10.332;2024-03-02T07:14:01;2.90;;;2.00;;
78122;SDS011;67376;44.802;10.332;2024-03-02T07:16:26;3.88;;;2.55;;
78122;SDS011;67376;44.802;10.332;2024-03-02T07:18:54;3.17;;;2.22;;
78122;SDS011;67376;44.802;10.332;2024-03-02T07:21:21;4.88;;;2.42;;
78122;SDS011;67376;44.802;10.332;2024-03-02T07:23:47;3.85;;;2.10;;
78122;SDS011;67376;44.802;10.332;2024-03-02T07:26:12;3.90;;;2.67;;
78122;SDS011;67376;44.802;10.332;2024-03-02T07:28:40;3.00;;;2.05;;
78122;SDS011;67376;44.802;10.332;2024-03-02T07:31:06;4.90;;;2.50;;
78122;SDS011;67376;44.802;10.332;2024-03-02T07:33:31;4.68;;;1.98;;
78122;SDS011;67376;44.802;10.332;2024-03-02T07:35:57;5.07;;;2.25;;
78122;SDS011;67376;44.802;10.332;2024-03-02T07:38:24;5.35;;;2.67;;
78122;SDS011;67376;44.802;10.332;2024-03-02T07:40:50;4.38;;;2.22;;
78122;SDS011;67376;44.802;10.332;2024-03-02T07:43:19;4.40;;;2.13;;
78122;SDS011;67376;44.802;10.332;2024-03-02T07:45:45;4.22;;;2.10;;
78122;SDS011;67376;44.802;10.332;2024-03-02T07:48:10;2.65;;;2.10;;
78122;SDS011;67376;44.802;10.332;2024-03-02T07:50:36;4.55;;;2.25;;
78122;SDS011;67376;44.802;10.332;2024-03-02T07:53:02;3.85;;;2.00;;
78122;SDS011;67376;44.802;10.332;2024-03-02T07:55:28;4.32;;;2.80;;
78122;SDS011;67376;44.802;10.332;2024-03-02T07:57:54;3.75;;;2.50;;
78122;SDS011;67376;44.802;10.332;2024-03-02T08:00:20;7.15;;;3.08;;
78122;SDS011;67376;44.802;10.332;2024-03-02T08:02:45;4.25;;;2.70;;
78122;SDS011;67376;44.802;10.332;2024-03-02T08:05:11;7.97;;;2.90;;
78122;SDS011;67376;44.802;10.332;2024-03-02T08:07:36;6.43;;;2.90;;
78122;SDS011;67376;44.802;10.332;2024-03-02T08:10:02;8.10;;;3.72;;
78122;SDS011;67376;44.802;10.332;2024-03-02T08:12:27;4.75;;;3.60;;
78122;SDS011;67376;44.802;10.332;2024-03-02T08:14:53;6.03;;;3.88;;
78122;SDS011;67376;44.802;10.332;2024-03-02T08:17:18;6.80;;;3.75;;
78122;SDS011;67376;44.802;10.332;2024-03-02T08:19:43;4.88;;;3.53;;
78122;SDS011;67376;44.802;10.332;2024-03-02T08:22:09;5.80;;;3.42;;
78122;SDS011;67376;44.802;10.332;2024-03-02T08:24:35;6.38;;;3.15;;
78122;SDS011;67376;44.802;10.332;2024-03-02T08:27:00;5.65;;;3.40;;
78122;SDS011;67376;44.802;10.332;2024-03-02T08:29:26;6.45;;;2.70;;
78122;SDS011;67376;44.802;10.332;2024-03-02T08:31:51;5.53;;;2.70;;
78122;SDS011;67376;44.802;10.332;2024-03-02T08:34:17;4.90;;;2.50;;
78122;SDS011;67376;44.802;10.332;2024-03-02T08:36:42;4.43;;;2.55;;
78122;SDS011;67376;44.802;10.332;2024-03-02T08:39:08;4.90;;;2.75;;
78122;SDS011;67376;44.802;10.332;2024-03-02T08:41:41;6.30;;;2.60;;
78122;SDS011;67376;44.802;10.332;2024-03-02T08:44:09;3.85;;;2.65;;
78122;SDS011;67376;44.802;10.332;2024-03-02T08:46:35;6.50;;;2.28;;
78122;SDS011;67376;44.802;10.332;2024-03-02T08:49:01;5.10;;;2.28;;
78122;SDS011;67376;44.802;10.332;2024-03-02T08:51:26;2.75;;;2.00;;
78122;SDS011;67376;44.802;10.332;2024-03-02T08:53:52;4.25;;;1.67;;
78122;SDS011;67376;44.802;10.332;2024-03-02T08:56:17;3.58;;;2.20;;
78122;SDS011;67376;44.802;10.332;2024-03-02T08:58:43;3.95;;;2.22;;
78122;SDS011;67376;44.802;10.332;2024-03-02T09:01:09;4.60;;;1.85;;
78122;SDS011;67376;44.802;10.332;2024-03-02T09:03:35;4.28;;;2.25;;
78122;SDS011;67376;44.802;10.332;2024-03-02T09:06:02;2.42;;;1.67;;
78122;SDS011;67376;44.802;10.332;2024-03-02T09:08:27;4.18;;;2.05;;
78122;SDS011;67376;44.802;10.332;2024-03-02T09:10:53;4.43;;;1.73;;
78122;SDS011;67376;44.802;10.332;2024-03-02T09:13:19;5.32;;;2.00;;
78122;SDS011;67376;44.802;10.332;2024-03-02T09:15:44;4.25;;;1.50;;
78122;SDS011;67376;44.802;10.332;2024-03-02T09:18:10;2.70;;;1.88;;
78122;SDS011;67376;44.802;10.332;2024-03-02T09:20:35;3.17;;;1.73;;
78122;SDS011;67376;44.802;10.332;2024-03-02T09:23:01;1.67;;;1.40;;
78122;SDS011;67376;44.802;10.332;2024-03-02T09:25:26;2.92;;;1.90;;
78122;SDS011;67376;44.802;10.332;2024-03-02T09:27:52;5.47;;;1.90;;
78122;SDS011;67376;44.802;10.332;2024-03-02T09:30:17;1.60;;;1.50;;
78122;SDS011;67376;44.802;10.332;2024-03-02T09:32:42;3.63;;;1.80;;
78122;SDS011;67376;44.802;10.332;2024-03-02T09:35:08;2.10;;;1.40;;
78122;SDS011;67376;44.802;10.332;2024-03-02T09:37:34;5.43;;;1.60;;
78122;SDS011;67376;44.802;10.332;2024-03-02T09:40:00;3.83;;;1.83;;
78122;SDS011;67376;44.802;10.332;2024-03-02T09:42:26;3.22;;;1.48;;
78122;SDS011;67376;44.802;10.332;2024-03-02T09:44:51;5.28;;;1.80;;
78122;SDS011;67376;44.802;10.332;2024-03-02T09:47:17;2.15;;;1.30;;
78122;SDS011;67376;44.802;10.332;2024-03-02T09:49:43;3.03;;;1.80;;
78122;SDS011;67376;44.802;10.332;2024-03-02T09:52:08;2.10;;;1.50;;
78122;SDS011;67376;44.802;10.332;2024-03-02T09:54:35;7.53;;;1.98;;
78122;SDS011;67376;44.802;10.332;2024-03-02T09:57:01;2.95;;;1.50;;
78122;SDS011;67376;44.802;10.332;2024-03-02T09:59:27;3.38;;;1.77;;
78122;SDS011;67376;44.802;10.332;2024-03-02T10:02:01;2.45;;;1.60;;
78122;SDS011;67376;44.802;10.332;2024-03-02T10:04:28;2.08;;;1.30;;
78122;SDS011;67376;44.802;10.332;2024-03-02T10:07:09;2.58;;;1.58;;
78122;SDS011;67376;44.802;10.332;2024-03-02T10:09:38;1.83;;;1.45;;
78122;SDS011;67376;44.802;10.332;2024-03-02T10:12:04;2.15;;;1.15;;
78122;SDS011;67376;44.802;10.332;2024-03-02T10:14:30;4.43;;;1.58;;
78122;SDS011;67376;44.802;10.332;2024-03-02T10:17:02;2.85;;;1.60;;
78122;SDS011;67376;44.802;10.332;2024-03-02T10:19:28;1.92;;;1.33;;
78122;SDS011;67376;44.802;10.332;2024-03-02T10:21:58;2.85;;;1.70;;
78122;SDS011;67376;44.802;10.332;2024-03-02T10:24:24;2.38;;;1.58;;
78122;SDS011;67376;44.802;10.332;2024-03-02T10:26:50;2.90;;;1.63;;
78122;SDS011;67376;44.802;10.332;2024-03-02T10:29:17;2.38;;;1.50;;
78122;SDS011;67376;44.802;10.332;2024-03-02T10:31:46;1.70;;;1.50;;
78122;SDS011;67376;44.802;10.332;2024-03-02T10:34:12;3.03;;;1.38;;
78122;SDS011;67376;44.802;10.332;2024-03-02T10:36:40;1.75;;;1.60;;
78122;SDS011;67376;44.802;10.332;2024-03-02T10:39:07;1.98;;;1.50;;
78122;SDS011;67376;44.802;10.332;2024-03-02T10:41:34;2.78;;;1.50;;
78122;SDS011;67376;44.802;10.332;2024-03-02T10:44:04;4.40;;;1.63;;
78122;SDS011;67376;44.802;10.332;2024-03-02T10:46:31;2.70;;;1.60;;
78122;SDS011;67376;44.802;10.332;2024-03-02T10:48:57;2.58;;;1.45;;
78122;SDS011;67376;44.802;10.332;2024-03-02T10:51:28;2.33;;;1.63;;
78122;SDS011;67376;44.802;10.332;2024-03-02T10:53:56;3.03;;;1.70;;
78122;SDS011;67376;44.802;10.332;2024-03-02T10:56:39;2.33;;;1.50;;
78122;SDS011;67376;44.802;10.332;2024-03-02T11:01:59;4.38;;;1.90;;
78122;SDS011;67376;44.802;10.332;2024-03-02T11:04:26;3.17;;;1.75;;
78122;SDS011;67376;44.802;10.332;2024-03-02T11:07:02;2.08;;;1.40;;
78122;SDS011;67376;44.802;10.332;2024-03-02T11:09:29;3.90;;;2.08;;
78122;SDS011;67376;44.802;10.332;2024-03-02T11:12:06;2.50;;;2.10;;
78122;SDS011;67376;44.802;10.332;2024-03-02T11:14:37;3.40;;;2.22;;
78122;SDS011;67376;44.802;10.332;2024-03-02T11:17:08;4.07;;;2.33;;
78122;SDS011;67376;44.802;10.332;2024-03-02T11:19:35;2.63;;;1.83;;
78122;SDS011;67376;44.802;10.332;2024-03-02T11:22:03;3.38;;;2.22;;
78122;SDS011;67376;44.802;10.332;2024-03-02T11:24:29;3.97;;;2.30;;
78122;SDS011;67376;44.802;10.332;2024-03-02T11:26:58;3.40;;;1.98;;
78122;SDS011;67376;44.802;10.332;2024-03-02T11:32:04;3.55;;;2.08;;
78122;SDS011;67376;44.802;10.332;2024-03-02T11:34:42;6.32;;;2.38;;
78122;SDS011;67376;44.802;10.332;2024-03-02T11:37:13;2.83;;;2.00;;
78122;SDS011;67376;44.802;10.332;2024-03-02T11:39:39;3.58;;;2.25;;
78122;SDS011;67376;44.802;10.332;2024-03-02T11:42:05;5.05;;;1.92;;
78122;SDS011;67376;44.802;10.332;2024-03-02T11:44:35;3.83;;;2.00;;
78122;SDS011;67376;44.802;10.332;2024-03-02T11:47:07;5.13;;;2.15;;
78122;SDS011;67376;44.802;10.332;2024-03-02T11:49:36;2.90;;;1.70;;
78122;SDS011;67376;44.802;10.332;2024-03-02T11:52:03;9.98;;;2.30;;
78122;SDS011;67376;44.802;10.332;2024-03-02T11:54:31;4.47;;;1.85;;
78122;SDS011;67376;44.802;10.332;2024-03-02T11:56:59;4.88;;;1.90;;
78122;SDS011;67376;44.802;10.332;2024-03-02T11:59:27;3.67;;;1.90;;
78122;SDS011;67376;44.802;10.332;2024-03-02T12:01:54;3.00;;;1.80;;
78122;SDS011;67376;44.802;10.332;2024-03-02T12:04:20;5.18;;;2.20;;
78122;SDS011;67376;44.802;10.332;2024-03-02T12:06:48;4.00;;;2.22;;
78122;SDS011;67376;44.802;10.332;2024-03-02T12:09:20;2.63;;;1.67;;
78122;SDS011;67376;44.802;10.332;2024-03-02T12:11:46;6.88;;;2.20;;
78122;SDS011;67376;44.802;10.332;2024-03-02T12:14:11;4.03;;;1.83;;
78122;SDS011;67376;44.802;10.332;2024-03-02T12:16:44;3.03;;;1.73;;
78122;SDS011;67376;44.802;10.332;2024-03-02T12:19:09;3.53;;;1.77;;
78122;SDS011;67376;44.802;10.332;2024-03-02T12:21:35;3.97;;;2.58;;
78122;SDS011;67376;44.802;10.332;2024-03-02T12:24:01;3.20;;;1.75;;
78122;SDS011;67376;44.802;10.332;2024-03-02T12:26:27;3.08;;;1.73;;
78122;SDS011;67376;44.802;10.332;2024-03-02T12:28:53;4.72;;;1.73;;
78122;SDS011;67376;44.802;10.332;2024-03-02T12:31:19;4.65;;;2.10;;
78122;SDS011;67376;44.802;10.332;2024-03-02T12:33:45;5.30;;;1.90;;
78122;SDS011;67376;44.802;10.332;2024-03-02T12:36:12;2.22;;;1.80;;
78122;SDS011;67376;44.802;10.332;2024-03-02T12:38:42;3.00;;;1.70;;
78122;SDS011;67376;44.802;10.332;2024-03-02T12:41:09;2.75;;;1.92;;
78122;SDS011;67376;44.802;10.332;2024-03-02T12:43:34;3.92;;;1.90;;
78122;SDS011;67376;44.802;10.332;2024-03-02T12:45:59;4.30;;;1.80;;
78122;SDS011;67376;44.802;10.332;2024-03-02T12:48:25;3.20;;;1.80;;
78122;SDS011;67376;44.802;10.332;2024-03-02T12:50:50;3.40;;;1.80;;
78122;SDS011;67376;44.802;10.332;2024-03-02T12:53:16;2.40;;;1.80;;
78122;SDS011;67376;44.802;10.332;2024-03-02T12:55:41;1.63;;;1.50;;
78122;SDS011;67376;44.802;10.332;2024-03-02T12:58:08;2.72;;;2.03;;
78122;SDS011;67376;44.802;10.332;2024-03-02T13:00:34;3.58;;;1.90;;
78122;SDS011;67376;44.802;10.332;2024-03-02T13:03:00;3.17;;;1.67;;
78122;SDS011;67376;44.802;10.332;2024-03-02T13:05:31;3.58;;;1.70;;
78122;SDS011;67376;44.802;10.332;2024-03-02T13:07:58;3.60;;;2.38;;
78122;SDS011;67376;44.802;10.332;2024-03-02T13:10:24;4.53;;;1.75;;
78122;SDS011;67376;44.802;10.332;2024-03-02T13:12:50;2.63;;;1.90;;
78122;SDS011;67376;44.802;10.332;2024-03-02T13:15:15;5.20;;;1.92;;
78122;SDS011;67376;44.802;10.332;2024-03-02T13:17:40;4.30;;;1.42;;
78122;SDS011;67376;44.802;10.332;2024-03-02T13:20:06;2.92;;;1.80;;
78122;SDS011;67376;44.802;10.332;2024-03-02T13:22:35;2.90;;;1.80;;
78122;SDS011;67376;44.802;10.332;2024-03-02T13:25:01;3.30;;;2.03;;
78122;SDS011;67376;44.802;10.332;2024-03-02T13:27:29;2.42;;;1.60;;
78122;SDS011;67376;44.802;10.332;2024-03-02T13:29:56;2.88;;;1.67;;
78122;SDS011;67376;44.802;10.332;2024-03-02T13:32:21;4.95;;;2.05;;
78122;SDS011;67376;44.802;10.332;2024-03-02T13:34:49;2.92;;;2.00;;
78122;SDS011;67376;44.802;10.332;2024-03-02T13:37:14;3.53;;;1.95;;
78122;SDS011;67376;44.802;10.332;2024-03-02T13:39:40;2.97;;;2.17;;
78122;SDS011;67376;44.802;10.332;2024-03-02T13:42:07;4.57;;;2.55;;
78122;SDS011;67376;44.802;10.332;2024-03-02T13:44:34;4.57;;;2.63;;
78122;SDS011;67376;44.802;10.332;2024-03-02T13:47:00;6.72;;;3.75;;
78122;SDS011;67376;44.802;10.332;2024-03-02T13:49:25;4.47;;;2.88;;
78122;SDS011;67376;44.802;10.332;2024-03-02T13:51:59;5.30;;;3.20;;
78122;SDS011;67376;44.802;10.332;2024-03-02T13:54:25;4.43;;;2.70;;
78122;SDS011;67376;44.802;10.332;2024-03-02T13:56:51;3.20;;;2.10;;
78122;SDS011;67376;44.802;10.332;2024-03-02T13:59:17;4.55;;;2.75;;
78122;SDS011;67376;44.802;10.332;2024-03-02T14:01:43;4.13;;;2.70;;
78122;SDS011;67376;44.802;10.332;2024-03-02T14:04:09;4.53;;;3.13;;
78122;SDS011;67376;44.802;10.332;2024-03-02T14:06:34;7.93;;;3.47;;
78122;SDS011;67376;44.802;10.332;2024-03-02T14:09:00;7.28;;;4.03;;
78122;SDS011;67376;44.802;10.332;2024-03-02T14:11:25;6.28;;;4.28;;
78122;SDS011;67376;44.802;10.332;2024-03-02T14:13:51;7.30;;;3.65;;
78122;SDS011;67376;44.802;10.332;2024-03-02T14:16:19;7.90;;;4.93;;
78122;SDS011;67376;44.802;10.332;2024-03-02T14:18:45;7.97;;;4.85;;
78122;SDS011;67376;44.802;10.332;2024-03-02T14:21:10;6.43;;;3.70;;
78122;SDS011;67376;44.802;10.332;2024-03-02T14:23:36;8.70;;;4.85;;
78122;SDS011;67376;44.802;10.332;2024-03-02T14:26:01;7.70;;;4.57;;
78122;SDS011;67376;44.802;10.332;2024-03-02T14:28:27;6.70;;;3.83;;
78122;SDS011;67376;44.802;10.332;2024-03-02T14:30:53;7.25;;;3.80;;
78122;SDS011;67376;44.802;10.332;2024-03-02T14:33:18;9.05;;;3.58;;
78122;SDS011;67376;44.802;10.332;2024-03-02T14:35:44;7.40;;;4.15;;
78122;SDS011;67376;44.802;10.332;2024-03-02T14:38:10;11.20;;;4.13;;